Time;durP1;ratioP1;P1;durP2;ratioP2;P2;SDS_P1;SDS_P2;PMS_P1;PMS_P2;Temp;Humidity;BMP_temperature;BMP_pressure;BME280_temperature;BME280_humidity;BME280_pressure;Samples;Min_cycle;Max_cycle;Signal;HPM_P1;HPM_P2
2023/07/09 00:01:36;;;;;;;7.93;5.13;;;;;;;;;;5010373;28;20017;-63
2023/07/09 00:04:02;;;;;;;9.85;5.28;;;;;;;;;;5009991;28;20103;-64
2023/07/09 00:06:27;;;;;;;9.45;4.93;;;;;;;;;;5010705;28;20045;-65
2023/07/09 00:08:52;;;;;;;7.20;4.40;;;;;;;;;;5009487;28;20022;-64
2023/07/09 00:11:17;;;;;;;9.23;4.57;;;;;;;;;;5007962;28;20084;-64
2023/07/09 00:13:42;;;;;;;8.67;4.70;;;;;;;;;;5008951;28;20104;-64
2023/07/09 00:16:18;;;;;;;7.88;4.97;;;;;;;;;;5010287;28;20022;-65
2023/07/09 00:18:43;;;;;;;7.82;5.10;;;;;;;;;;5010380;28;20057;-63
2023/07/09 00:21:08;;;;;;;7.83;4.80;;;;;;;;;;5010555;28;20037;-64
2023/07/09 00:23:34;;;;;;;9.27;4.50;;;;;;;;;;5009871;28;20291;-65
2023/07/09 00:25:59;;;;;;;8.20;4.73;;;;;;;;;;5010551;28;20533;-64
2023/07/09 00:28:25;;;;;;;7.82;4.30;;;;;;;;;;5005941;28;20544;-65
2023/07/09 00:30:50;;;;;;;10.02;4.60;;;;;;;;;;5010137;28;20489;-64
2023/07/09 00:33:18;;;;;;;7.03;4.40;;;;;;;;;;5009876;28;20022;-64
2023/07/09 00:35:46;;;;;;;7.30;4.20;;;;;;;;;;5010679;28;20437;-63
2023/07/09 00:38:21;;;;;;;7.72;4.35;;;;;;;;;;5009015;28;20028;-63
2023/07/09 00:40:48;;;;;;;10.88;5.20;;;;;;;;;;5011333;28;20026;-65
2023/07/09 00:43:15;;;;;;;8.57;4.80;;;;;;;;;;5011075;28;20084;-65
2023/07/09 00:45:40;;;;;;;8.40;4.60;;;;;;;;;;5010739;28;20030;-63
2023/07/09 00:48:06;;;;;;;7.40;4.15;;;;;;;;;;5015547;28;20028;-64
2023/07/09 00:50:36;;;;;;;7.60;4.47;;;;;;;;;;5003773;28;20041;-63
2023/07/09 00:53:07;;;;;;;7.22;4.35;;;;;;;;;;4993739;28;20029;-65
2023/07/09 00:55:33;;;;;;;8.60;4.55;;;;;;;;;;5009715;28;20021;-64
2023/07/09 00:57:58;;;;;;;;;;;;;;;;;;5013255;28;20390;-63
2023/07/09 01:00:42;;;;;;;7.57;4.45;;;;;;;;;;5012486;28;19909;-65
2023/07/09 01:03:08;;;;;;;7.80;4.63;;;;;;;;;;5010526;28;20045;-62
2023/07/09 01:05:33;;;;;;;10.00;5.20;;;;;;;;;;5013347;28;20194;-63
2023/07/09 01:07:58;;;;;;;8.45;4.82;;;;;;;;;;5012788;28;20021;-63
2023/07/09 01:10:24;;;;;;;7.93;4.75;;;;;;;;;;5012752;28;20040;-63
2023/07/09 01:12:50;;;;;;;8.07;4.00;;;;;;;;;;5012300;28;20478;-65
2023/07/09 01:15:15;;;;;;;10.18;4.60;;;;;;;;;;5011747;28;20033;-64
2023/07/09 01:17:44;;;;;;;6.82;4.55;;;;;;;;;;5012758;28;20512;-64
2023/07/09 01:20:14;;;;;;;8.60;4.70;;;;;;;;;;5012537;28;20034;-65
2023/07/09 01:22:39;;;;;;;10.90;4.32;;;;;;;;;;5010532;28;20041;-64
2023/07/09 01:25:06;;;;;;;7.73;4.23;;;;;;;;;;5013005;28;20037;-64
2023/07/09 01:27:37;;;;;;;8.70;4.15;;;;;;;;;;5012819;28;20032;-63
2023/07/09 01:30:06;;;;;;;7.80;4.10;;;;;;;;;;5011487;28;20045;-65
2023/07/09 01:32:31;;;;;;;7.10;4.13;;;;;;;;;;5010559;28;20486;-63
2023/07/09 01:35:04;;;;;;;8.43;4.67;;;;;;;;;;5012329;28;20025;-64
2023/07/09 01:37:30;;;;;;;6.72;3.75;;;;;;;;;;5011784;28;20108;-63
2023/07/09 01:39:55;;;;;;;7.80;3.70;;;;;;;;;;5012489;28;20481;-64
2023/07/09 01:42:21;;;;;;;7.10;4.63;;;;;;;;;;5011483;28;20484;-62
2023/07/09 01:44:47;;;;;;;7.70;4.28;;;;;;;;;;5012265;28;20441;-64
2023/07/09 01:47:12;;;;;;;7.43;4.03;;;;;;;;;;5010259;28;20029;-62
2023/07/09 01:49:39;;;;;;;7.97;4.15;;;;;;;;;;5012007;28;20022;-63
2023/07/09 01:52:08;;;;;;;6.20;3.78;;;;;;;;;;5011725;28;20030;-62
2023/07/09 01:54:37;;;;;;;7.53;4.07;;;;;;;;;;5011395;28;20084;-63
2023/07/09 01:57:14;;;;;;;8.30;4.28;;;;;;;;;;5008646;28;20180;-62
2023/07/09 01:59:41;;;;;;;6.13;4.05;;;;;;;;;;5006662;28;20068;-63
2023/07/09 02:02:06;;;;;;;7.35;4.03;;;;;;;;;;5010810;28;20017;-63
2023/07/09 02:04:31;;;;;;;6.60;3.87;;;;;;;;;;5009137;28;20026;-65
2023/07/09 02:06:57;;;;;;;7.93;3.78;;;;;;;;;;5012244;28;20024;-63
2023/07/09 02:09:22;;;;;;;6.85;3.83;;;;;;;;;;5011332;28;20028;-63
2023/07/09 02:11:47;;;;;;;7.28;4.07;;;;;;;;;;5010852;28;20029;-64
2023/07/09 02:14:12;;;;;;;6.90;3.97;;;;;;;;;;5010975;28;20092;-63
2023/07/09 02:16:37;;;;;;;6.95;3.60;;;;;;;;;;5011927;28;20053;-63
2023/07/09 02:19:02;;;;;;;7.55;3.92;;;;;;;;;;5012157;28;20037;-63
2023/07/09 02:21:29;;;;;;;7.55;4.70;;;;;;;;;;5009362;28;20389;-65
2023/07/09 02:23:55;;;;;;;7.00;3.70;;;;;;;;;;5011721;28;20080;-64
2023/07/09 02:26:20;;;;;;;7.07;3.80;;;;;;;;;;5012048;28;20037;-65
2023/07/09 02:28:45;;;;;;;5.87;3.60;;;;;;;;;;5010699;28;20029;-64
2023/07/09 02:31:10;;;;;;;6.07;3.63;;;;;;;;;;5011654;28;20026;-63
2023/07/09 02:33:36;;;;;;;8.25;4.07;;;;;;;;;;5011045;28;20371;-64
2023/07/09 02:36:01;;;;;;;5.97;3.70;;;;;;;;;;5011530;28;20101;-63
2023/07/09 02:38:26;;;;;;;6.17;3.50;;;;;;;;;;5010190;28;20719;-63
2023/07/09 02:40:53;;;;;;;7.03;3.63;;;;;;;;;;5011878;28;20025;-63
2023/07/09 02:43:18;;;;;;;7.57;3.85;;;;;;;;;;5008295;28;20048;-63
2023/07/09 02:45:43;;;;;;;6.20;3.83;;;;;;;;;;5010449;28;20026;-63
2023/07/09 02:48:08;;;;;;;7.63;4.10;;;;;;;;;;5011290;28;20395;-65
2023/07/09 02:50:33;;;;;;;6.28;3.72;;;;;;;;;;5011196;28;20029;-63
2023/07/09 02:52:58;;;;;;;6.60;4.00;;;;;;;;;;5010814;28;20053;-64
2023/07/09 02:55:24;;;;;;;7.68;4.00;;;;;;;;;;5011644;28;20018;-64
2023/07/09 02:57:49;;;;;;;7.13;3.80;;;;;;;;;;5011598;28;20049;-62
2023/07/09 03:00:14;;;;;;;7.20;4.18;;;;;;;;;;5009625;28;20026;-63
2023/07/09 03:02:39;;;;;;;6.50;3.97;;;;;;;;;;5007669;28;20041;-63
2023/07/09 03:05:04;;;;;;;7.00;3.70;;;;;;;;;;5010017;28;20061;-63
2023/07/09 03:07:30;;;;;;;6.43;4.07;;;;;;;;;;5013477;28;20032;-62
2023/07/09 03:09:55;;;;;;;8.15;4.00;;;;;;;;;;5012545;28;20482;-64
2023/07/09 03:12:20;;;;;;;7.38;3.80;;;;;;;;;;5012369;28;20806;-63
2023/07/09 03:14:47;;;;;;;7.67;3.90;;;;;;;;;;5007823;28;20026;-64
2023/07/09 03:17:12;;;;;;;6.78;3.60;;;;;;;;;;5012213;28;20075;-63
2023/07/09 03:19:37;;;;;;;6.28;3.58;;;;;;;;;;5012090;28;20444;-60
2023/07/09 03:22:03;;;;;;;7.53;3.88;;;;;;;;;;5014386;28;20076;-63
2023/07/09 03:24:28;;;;;;;6.67;4.20;;;;;;;;;;5010447;28;20021;-63
2023/07/09 03:26:53;;;;;;;6.30;3.83;;;;;;;;;;5010368;28;20443;-63
2023/07/09 03:29:18;;;;;;;7.82;4.40;;;;;;;;;;5010259;28;20034;-62
2023/07/09 03:31:43;;;;;;;7.07;4.30;;;;;;;;;;5010795;28;20025;-62
2023/07/09 03:34:08;;;;;;;7.50;3.90;;;;;;;;;;5008659;28;20057;-63
2023/07/09 03:36:37;;;;;;;7.00;3.90;;;;;;;;;;5011095;28;20018;-63
2023/07/09 03:39:02;;;;;;;6.78;3.45;;;;;;;;;;5010717;28;20034;-64
2023/07/09 03:41:27;;;;;;;7.35;4.40;;;;;;;;;;5010831;28;20022;-63
2023/07/09 03:43:53;;;;;;;7.40;3.93;;;;;;;;;;5010304;28;20078;-63
2023/07/09 03:46:18;;;;;;;7.07;3.72;;;;;;;;;;5010956;28;20026;-61
2023/07/09 03:48:43;;;;;;;7.53;4.05;;;;;;;;;;5010991;28;20022;-62
2023/07/09 03:51:08;;;;;;;6.90;4.20;;;;;;;;;;5008916;28;20049;-63
2023/07/09 03:53:33;;;;;;;6.07;3.53;;;;;;;;;;5010456;28;20105;-63
2023/07/09 03:56:00;;;;;;;6.78;3.92;;;;;;;;;;5011256;28;20029;-62
2023/07/09 03:58:25;;;;;;;7.53;4.38;;;;;;;;;;5011190;28;20026;-63
2023/07/09 04:00:50;;;;;;;7.32;4.55;;;;;;;;;;5011460;28;20504;-64
2023/07/09 04:03:15;;;;;;;6.37;3.90;;;;;;;;;;5010649;28;20033;-62
2023/07/09 04:05:41;;;;;;;8.67;3.90;;;;;;;;;;5010133;28;20476;-62
2023/07/09 04:08:06;;;;;;;7.20;4.00;;;;;;;;;;5011387;28;20026;-62
2023/07/09 04:10:31;;;;;;;6.47;3.60;;;;;;;;;;5010932;28;20030;-62
2023/07/09 04:12:56;;;;;;;8.83;4.00;;;;;;;;;;5010232;28;20018;-62
2023/07/09 04:15:22;;;;;;;8.03;4.13;;;;;;;;;;5009210;28;20494;-63
2023/07/09 04:17:47;;;;;;;7.47;4.33;;;;;;;;;;5010560;28;20018;-62
2023/07/09 04:20:13;;;;;;;7.60;4.53;;;;;;;;;;5006015;28;20456;-62
2023/07/09 04:22:38;;;;;;;6.90;4.47;;;;;;;;;;5009345;28;20375;-61
2023/07/09 04:25:05;;;;;;;7.57;4.20;;;;;;;;;;5014530;28;20075;-63
2023/07/09 04:27:30;;;;;;;7.22;4.45;;;;;;;;;;5014458;28;20030;-62
2023/07/09 04:29:56;;;;;;;7.15;3.65;;;;;;;;;;5013965;28;20022;-64
2023/07/09 04:32:21;;;;;;;7.23;4.10;;;;;;;;;;5011773;28;20117;-63
2023/07/09 04:34:46;;;;;;;7.30;4.07;;;;;;;;;;5013760;28;20057;-64
2023/07/09 04:37:12;;;;;;;8.17;4.33;;;;;;;;;;5012308;28;20453;-62
2023/07/09 04:39:38;;;;;;;7.53;4.38;;;;;;;;;;5014215;28;20813;-62
2023/07/09 04:42:03;;;;;;;10.30;4.50;;;;;;;;;;5014272;28;20021;-62
2023/07/09 04:44:29;;;;;;;6.95;4.10;;;;;;;;;;5014034;28;20033;-63
2023/07/09 04:46:54;;;;;;;7.60;4.53;;;;;;;;;;5012668;28;20436;-62
2023/07/09 04:49:19;;;;;;;6.60;3.93;;;;;;;;;;5013536;28;20466;-62
2023/07/09 04:51:44;;;;;;;6.83;4.13;;;;;;;;;;5013549;28;20033;-62
2023/07/09 04:54:09;;;;;;;7.38;4.63;;;;;;;;;;5012105;28;20382;-62
2023/07/09 04:56:36;;;;;;;8.57;4.45;;;;;;;;;;5013441;28;20397;-64
2023/07/09 04:59:01;;;;;;;8.18;4.30;;;;;;;;;;5013548;28;20032;-63
2023/07/09 05:01:26;;;;;;;8.57;4.20;;;;;;;;;;5013872;28;20022;-63
2023/07/09 05:03:52;;;;;;;7.65;4.57;;;;;;;;;;5012828;28;20025;-62
2023/07/09 05:06:17;;;;;;;6.85;4.32;;;;;;;;;;4999874;28;20428;-63
2023/07/09 05:08:42;;;;;;;6.63;4.20;;;;;;;;;;4993720;28;20061;-64
2023/07/09 05:11:08;;;;;;;6.60;3.97;;;;;;;;;;5010457;28;20038;-64
2023/07/09 05:13:33;;;;;;;7.85;4.32;;;;;;;;;;5012958;28;20436;-63
2023/07/09 05:15:58;;;;;;;;;;;;;;;;;;5012562;28;20025;-64
2023/07/09 05:18:24;;;;;;;6.30;4.05;;;;;;;;;;5013152;28;20400;-63
2023/07/09 05:20:49;;;;;;;;;;;;;;;;;;5013398;28;20025;-62
2023/07/09 05:23:14;;;;;;;8.25;4.95;;;;;;;;;;5012875;28;20348;-63
2023/07/09 05:25:39;;;;;;;;;;;;;;;;;;5012182;28;20029;-62
2023/07/09 05:28:04;;;;;;;6.78;4.30;;;;;;;;;;5010189;28;20406;-62
2023/07/09 05:30:30;;;;;;;;;;;;;;;;;;5012153;28;20026;-62
2023/07/09 05:32:57;;;;;;;10.18;4.13;;;;;;;;;;5011919;28;20004;-63
2023/07/09 05:35:23;;;;;;;8.95;4.20;;;;;;;;;;5012547;28;20072;-62
2023/07/09 05:37:48;;;;;;;;;;;;;;;;;;5017418;28;20032;-62
2023/07/09 05:40:13;;;;;;;8.18;4.00;;;;;;;;;;5023011;28;19937;-62
2023/07/09 05:42:38;;;;;;;;;;;;;;;;;;5018076;28;20022;-63
2023/07/09 05:45:03;;;;;;;7.88;3.92;;;;;;;;;;5010160;28;20413;-64
2023/07/09 05:47:28;;;;;;;;;;;;;;;;;;5008842;28;20018;-63
2023/07/09 05:49:54;;;;;;;8.68;4.22;;;;;;;;;;5012033;28;20004;-63
2023/07/09 05:52:20;;;;;;;7.38;4.07;;;;;;;;;;5011865;28;20022;-63
2023/07/09 05:54:46;;;;;;;8.85;4.30;;;;;;;;;;5012358;28;20033;-62
2023/07/09 05:57:11;;;;;;;6.30;3.90;;;;;;;;;;5012053;28;20033;-63
2023/07/09 05:59:36;;;;;;;6.33;3.90;;;;;;;;;;5010504;28;20456;-63
2023/07/09 06:02:01;;;;;;;;;;;;;;;;;;5009548;28;20022;-64
2023/07/09 06:04:27;;;;;;;6.13;3.88;;;;;;;;;;5011256;28;19913;-63
2023/07/09 06:06:53;;;;;;;6.28;3.85;;;;;;;;;;5011902;28;20495;-62
2023/07/09 06:09:18;;;;;;;;;;;;;;;;;;5008848;28;20030;-63
2023/07/09 06:11:44;;;;;;;7.07;4.38;;;;;;;;;;5008116;28;19917;-62
2023/07/09 06:14:09;;;;;;;;;;;;;;;;;;5007635;28;20101;-64
2023/07/09 06:16:34;;;;;;;8.13;4.03;;;;;;;;;;5006172;28;20361;-64
2023/07/09 06:18:59;;;;;;;;;;;;;;;;;;5007307;28;20014;-62
2023/07/09 06:21:24;;;;;;;6.25;3.95;;;;;;;;;;5004738;28;20357;-62
2023/07/09 06:23:50;;;;;;;;;;;;;;;;;;5001593;28;20022;-64
2023/07/09 06:26:15;;;;;;;7.00;4.05;;;;;;;;;;5009640;28;20372;-64
2023/07/09 06:28:40;;;;;;;7.43;4.20;;;;;;;;;;5007536;28;20064;-63
2023/07/09 06:31:05;;;;;;;7.40;3.92;;;;;;;;;;4998308;28;20531;-62
2023/07/09 06:33:30;;;;;;;;;;;;;;;;;;5005316;28;20126;-65
2023/07/09 06:35:59;;;;;;;6.50;3.77;;;;;;;;;;5005357;28;19913;-63
2023/07/09 06:38:25;;;;;;;9.18;4.03;;;;;;;;;;5002047;28;20065;-64
2023/07/09 06:40:50;;;;;;;;;;;;;;;;;;5008087;28;20037;-62
2023/07/09 06:43:15;;;;;;;8.25;4.40;;;;;;;;;;5005780;28;19960;-62
2023/07/09 06:45:40;;;;;;;;;;;;;;;;;;5000861;28;20026;-63
2023/07/09 06:48:05;;;;;;;6.32;3.88;;;;;;;;;;5009130;28;19906;-64
2023/07/09 06:50:30;;;;;;;;;;;;;;;;;;4998980;28;20699;-63
2023/07/09 06:52:55;;;;;;;7.43;4.20;;;;;;;;;;5000871;28;19909;-61
2023/07/09 06:55:21;;;;;;;7.13;4.00;;;;;;;;;;5006659;28;20241;-63
2023/07/09 06:57:46;;;;;;;;;;;;;;;;;;5006640;28;20033;-63
2023/07/09 07:00:11;;;;;;;7.38;4.00;;;;;;;;;;5002291;28;19913;-62
2023/07/09 07:02:36;;;;;;;;;;;;;;;;;;5002256;28;20026;-66
2023/07/09 07:05:01;;;;;;;7.28;4.00;;;;;;;;;;5000225;28;19917;-63
2023/07/09 07:07:27;;;;;;;;;;;;;;;;;;5004254;28;20489;-63
2023/07/09 07:09:52;;;;;;;5.95;3.67;;;;;;;;;;5005883;28;19910;-63
2023/07/09 07:12:17;;;;;;;;;;;;;;;;;;5005141;28;20089;-63
2023/07/09 07:14:42;;;;;;;6.68;3.70;;;;;;;;;;4999268;28;19913;-62
2023/07/09 07:17:07;;;;;;;;;;;;;;;;;;5004316;28;20030;-63
2023/07/09 07:19:32;;;;;;;6.55;3.70;;;;;;;;;;5011286;28;19925;-63
2023/07/09 07:21:57;;;;;;;;;;;;;;;;;;5004914;28;20493;-62
2023/07/09 07:24:22;;;;;;;7.30;3.80;;;;;;;;;;5009067;28;19910;-62
2023/07/09 07:26:48;;;;;;;7.50;4.70;;;;;;;;;;5016409;28;20079;-63
2023/07/09 07:29:13;;;;;;;;;;;;;;;;;;5016675;28;20436;-62
2023/07/09 07:31:38;;;;;;;6.35;3.80;;;;;;;;;;5007991;28;19921;-62
2023/07/09 07:34:03;;;;;;;7.80;3.80;;;;;;;;;;5010425;28;20021;-63
2023/07/09 07:36:28;;;;;;;6.60;3.60;;;;;;;;;;5010949;28;20536;-63
2023/07/09 07:38:53;;;;;;;7.23;3.90;;;;;;;;;;5005115;28;20014;-63
2023/07/09 07:41:18;;;;;;;6.10;4.10;;;;;;;;;;5013943;28;20021;-62
2023/07/09 07:43:44;;;;;;;6.10;3.53;;;;;;;;;;5008837;28;20018;-64
2023/07/09 07:46:09;;;;;;;7.30;3.50;;;;;;;;;;5010107;28;20022;-62
2023/07/09 07:48:34;;;;;;;7.55;3.75;;;;;;;;;;5010283;28;20093;-63
2023/07/09 07:51:01;;;;;;;;;;;;;;;;;;5011651;28;20045;-63
2023/07/09 07:53:29;;;;;;;7.35;3.55;;;;;;;;;;5011455;28;19909;-65
2023/07/09 07:55:54;;;;;;;8.57;3.85;;;;;;;;;;5015701;28;20048;-64
2023/07/09 07:58:19;;;;;;;;;;;;;;;;;;5012458;28;20025;-64
2023/07/09 08:00:44;;;;;;;7.05;3.85;;;;;;;;;;5018046;28;20369;-65
2023/07/09 08:03:09;;;;;;;8.13;3.90;;;;;;;;;;5013703;28;20026;-66
2023/07/09 08:05:35;;;;;;;5.55;3.58;;;;;;;;;;5013011;28;20121;-65
2023/07/09 08:08:00;;;;;;;;;;;;;;;;;;5015481;28;20034;-65
2023/07/09 08:10:25;;;;;;;6.88;3.60;;;;;;;;;;5011402;28;19918;-63
2023/07/09 08:12:50;;;;;;;;;;;;;;;;;;5006171;28;20029;-65
2023/07/09 08:15:16;;;;;;;6.90;3.95;;;;;;;;;;5013183;28;19955;-65
2023/07/09 08:17:41;;;;;;;;;;;;;;;;;;5006829;28;20029;-64
2023/07/09 08:20:07;;;;;;;9.48;3.70;;;;;;;;;;5010860;28;19917;-65
2023/07/09 08:22:32;;;;;;;6.43;3.67;;;;;;;;;;5010163;28;20034;-64
2023/07/09 08:24:57;;;;;;;;;;;;;;;;;;5012175;28;20029;-64
2023/07/09 08:27:22;;;;;;;6.50;3.17;;;;;;;;;;5007279;28;19910;-63
2023/07/09 08:29:47;;;;;;;6.18;3.42;;;;;;;;;;5014454;28;20014;-64
2023/07/09 08:32:13;;;;;;;6.40;4.10;;;;;;;;;;5012816;28;20395;-64
2023/07/09 08:34:38;;;;;;;;;;;;;;;;;;5009678;28;20470;-60
2023/07/09 08:37:03;;;;;;;5.93;3.58;;;;;;;;;;5005817;28;19909;-62
2023/07/09 08:39:28;;;;;;;;;;;;;;;;;;5008669;28;20514;-63
2023/07/09 08:41:54;;;;;;;5.70;3.63;;;;;;;;;;5004119;28;20524;-64
2023/07/09 08:44:38;;;;;;;7.10;4.05;;;;;;;;;;5009829;28;20032;-63
2023/07/09 08:47:12;;;;;;;7.55;3.90;;;;;;;;;;5006851;28;20027;-64
2023/07/09 08:49:40;;;;;;;7.10;4.10;;;;;;;;;;5008604;28;20102;-65
2023/07/09 08:52:12;;;;;;;6.75;3.60;;;;;;;;;;5004890;28;20029;-64
2023/07/09 08:54:38;;;;;;;5.60;3.50;;;;;;;;;;5006015;28;20022;-65
2023/07/09 08:57:16;;;;;;;6.13;3.20;;;;;;;;;;5013084;28;20029;-62
2023/07/09 08:59:42;;;;;;;5.32;3.10;;;;;;;;;;5012569;28;20152;-64
2023/07/09 09:02:14;;;;;;;5.03;2.90;;;;;;;;;;5004668;28;20110;-64
2023/07/09 09:04:39;;;;;;;6.28;3.88;;;;;;;;;;4992337;28;20833;-63
2023/07/09 09:07:13;;;;;;;6.38;3.42;;;;;;;;;;5000852;28;20052;-63
2023/07/09 09:09:40;;;;;;;5.47;3.53;;;;;;;;;;5006069;28;20224;-63
2023/07/09 09:12:12;;;;;;;7.15;3.75;;;;;;;;;;5005968;28;20022;-63
2023/07/09 09:14:46;;;;;;;5.72;3.15;;;;;;;;;;5010723;28;20418;-64
2023/07/09 09:17:13;;;;;;;5.57;3.00;;;;;;;;;;5011150;28;20033;-63
2023/07/09 09:19:44;;;;;;;5.22;3.50;;;;;;;;;;5006716;28;20037;-63
2023/07/09 09:22:11;;;;;;;5.13;3.10;;;;;;;;;;5010921;28;20101;-63
2023/07/09 09:24:41;;;;;;;6.57;3.42;;;;;;;;;;5009694;28;20108;-63
2023/07/09 09:27:08;;;;;;;6.97;3.20;;;;;;;;;;5008756;28;20018;-63
2023/07/09 09:29:33;;;;;;;7.90;3.55;;;;;;;;;;5008837;28;20092;-63
2023/07/09 09:32:00;;;;;;;5.60;3.40;;;;;;;;;;5010214;28;20118;-63
2023/07/09 09:34:28;;;;;;;5.53;3.22;;;;;;;;;;5005749;28;20515;-63
2023/07/09 09:36:53;;;;;;;6.40;3.50;;;;;;;;;;5007938;28;20033;-65
2023/07/09 09:39:19;;;;;;;5.38;3.22;;;;;;;;;;5011754;28;20021;-64
2023/07/09 09:41:45;;;;;;;5.47;3.20;;;;;;;;;;5004578;28;20069;-63
2023/07/09 09:44:18;;;;;;;5.80;3.10;;;;;;;;;;5012250;28;20447;-64
2023/07/09 09:46:43;;;;;;;5.80;3.15;;;;;;;;;;5007623;28;20493;-61
2023/07/09 09:49:08;;;;;;;6.18;3.78;;;;;;;;;;4992673;28;20027;-64
2023/07/09 09:51:34;;;;;;;6.25;3.03;;;;;;;;;;4993798;28;20136;-63
2023/07/09 09:54:00;;;;;;;6.70;2.90;;;;;;;;;;4999314;28;20026;-62
2023/07/09 09:56:30;;;;;;;5.95;2.95;;;;;;;;;;5003793;28;20030;-62
2023/07/09 09:58:56;;;;;;;6.75;3.28;;;;;;;;;;5012073;28;20018;-62
2023/07/09 10:01:29;;;;;;;5.10;2.95;;;;;;;;;;5010225;28;20029;-61
2023/07/09 10:03:55;;;;;;;6.60;3.33;;;;;;;;;;5009587;28;20490;-63
2023/07/09 10:06:24;;;;;;;5.97;3.60;;;;;;;;;;5001682;28;20030;-62
2023/07/09 10:08:51;;;;;;;5.20;3.35;;;;;;;;;;5000672;28;20429;-63
2023/07/09 10:11:20;;;;;;;5.93;3.42;;;;;;;;;;5008722;28;20091;-64
2023/07/09 10:13:46;;;;;;;5.53;3.20;;;;;;;;;;5010227;28;20031;-62
2023/07/09 10:16:16;;;;;;;5.70;3.38;;;;;;;;;;5004129;28;20034;-62
2023/07/09 10:18:50;;;;;;;7.20;3.05;;;;;;;;;;5012026;28;20026;-62
2023/07/09 10:21:23;;;;;;;5.50;3.35;;;;;;;;;;5013425;28;20014;-63
2023/07/09 10:23:55;;;;;;;6.20;3.00;;;;;;;;;;5011879;28;20018;-62
2023/07/09 10:26:24;;;;;;;5.53;3.30;;;;;;;;;;5012939;28;20393;-64
2023/07/09 10:28:59;;;;;;;6.85;3.13;;;;;;;;;;5008589;28;20014;-63
2023/07/09 10:31:24;;;;;;;5.65;3.17;;;;;;;;;;5009398;28;20037;-62
2023/07/09 10:33:55;;;;;;;5.95;3.22;;;;;;;;;;5009429;28;20102;-64
2023/07/09 10:36:38;;;;;;;6.57;3.10;;;;;;;;;;5008688;28;20505;-64
2023/07/09 10:39:24;;;;;;;5.45;3.10;;;;;;;;;;5002566;28;20024;-61
2023/07/09 10:41:50;;;;;;;5.45;3.22;;;;;;;;;;5006493;28;20145;-62
2023/07/09 10:44:18;;;;;;;5.90;3.42;;;;;;;;;;5011440;28;20033;-62
2023/07/09 10:46:45;;;;;;;6.80;3.70;;;;;;;;;;5005826;28;20030;-64
2023/07/09 10:49:12;;;;;;;5.97;3.33;;;;;;;;;;5009700;28;20466;-62
2023/07/09 10:51:39;;;;;;;7.43;3.50;;;;;;;;;;5010420;28;20033;-62
2023/07/09 10:54:23;;;;;;;7.22;3.50;;;;;;;;;;5007290;28;20021;-63
2023/07/09 10:56:52;;;;;;;5.68;3.35;;;;;;;;;;5010530;28;20036;-62
2023/07/09 10:59:46;;;;;;;5.97;3.20;;;;;;;;;;5011610;28;20022;-63
2023/07/09 11:02:23;;;;;;;5.97;3.47;;;;;;;;;;5000012;28;20125;-63
2023/07/09 11:04:53;;;;;;;6.72;3.22;;;;;;;;;;5009899;28;20061;-63
2023/07/09 11:07:23;;;;;;;5.78;3.30;;;;;;;;;;5001185;28;20076;-62
2023/07/09 11:09:49;;;;;;;6.55;3.30;;;;;;;;;;5010272;28;20026;-62
2023/07/09 11:12:21;;;;;;;7.65;3.15;;;;;;;;;;5001228;28;20080;-63
2023/07/09 11:14:50;;;;;;;5.93;3.40;;;;;;;;;;5010182;28;20022;-64
2023/07/09 11:17:18;;;;;;;5.65;3.85;;;;;;;;;;5001532;28;20402;-64
2023/07/09 11:19:46;;;;;;;5.82;3.53;;;;;;;;;;4999516;28;20024;-63
2023/07/09 11:22:21;;;;;;;6.03;2.97;;;;;;;;;;5001568;28;20309;-63
2023/07/09 11:24:50;;;;;;;6.10;3.35;;;;;;;;;;5011222;28;20105;-63
2023/07/09 11:27:19;;;;;;;6.93;3.63;;;;;;;;;;5003983;28;20110;-63
2023/07/09 11:29:45;;;;;;;6.15;3.25;;;;;;;;;;5010923;28;20029;-64
2023/07/09 11:32:18;;;;;;;6.78;2.92;;;;;;;;;;5004018;28;20046;-62
2023/07/09 11:34:46;;;;;;;7.78;3.17;;;;;;;;;;5009481;28;20022;-63
2023/07/09 11:37:13;;;;;;;6.32;3.55;;;;;;;;;;5006744;28;20489;-64
2023/07/09 11:39:38;;;;;;;6.45;3.00;;;;;;;;;;5007052;28;20746;-64
2023/07/09 11:42:03;;;;;;;6.40;3.10;;;;;;;;;;4995849;28;20023;-64
2023/07/09 11:44:30;;;;;;;6.38;2.85;;;;;;;;;;5010199;28;20451;-62
2023/07/09 11:47:01;;;;;;;6.47;3.13;;;;;;;;;;5006856;28;20022;-62
2023/07/09 11:49:46;;;;;;;6.75;3.28;;;;;;;;;;5010698;28;20006;-64
2023/07/09 11:52:12;;;;;;;5.50;3.33;;;;;;;;;;5008943;28;20101;-63
2023/07/09 11:54:38;;;;;;;6.43;3.10;;;;;;;;;;5007392;28;20913;-63
2023/07/09 11:57:09;;;;;;;7.00;3.50;;;;;;;;;;5006659;28;20026;-62
2023/07/09 11:59:38;;;;;;;5.70;3.25;;;;;;;;;;5008520;28;20529;-64
2023/07/09 12:02:03;;;;;;;5.25;2.92;;;;;;;;;;5000124;28;20023;-62
2023/07/09 12:04:33;;;;;;;7.60;3.10;;;;;;;;;;5007682;28;20020;-64
2023/07/09 12:07:00;;;;;;;6.55;3.20;;;;;;;;;;5009394;28;20022;-62
2023/07/09 12:09:31;;;;;;;5.32;2.92;;;;;;;;;;5003018;28;20101;-61
2023/07/09 12:11:56;;;;;;;5.30;2.97;;;;;;;;;;4994537;28;20026;-63
2023/07/09 12:14:22;;;;;;;5.72;2.80;;;;;;;;;;5002268;28;20032;-64
2023/07/09 12:16:48;;;;;;;5.95;2.72;;;;;;;;;;5005486;28;20501;-64
2023/07/09 12:19:14;;;;;;;7.63;2.83;;;;;;;;;;5006612;28;20026;-64
2023/07/09 12:21:42;;;;;;;6.38;3.40;;;;;;;;;;5002055;28;20389;-64
2023/07/09 12:24:34;;;;;;;7.40;2.92;;;;;;;;;;4999192;28;20030;-61
2023/07/09 12:27:00;;;;;;;8.30;3.05;;;;;;;;;;5002228;28;20046;-63
2023/07/09 12:29:26;;;;;;;5.35;2.90;;;;;;;;;;5010460;28;20030;-63
2023/07/09 12:31:51;;;;;;;6.18;2.83;;;;;;;;;;5008366;28;20030;-63
2023/07/09 12:34:16;;;;;;;6.60;3.00;;;;;;;;;;5002999;28;20030;-63
2023/07/09 12:36:45;;;;;;;6.65;2.78;;;;;;;;;;5008586;28;20034;-63
2023/07/09 12:39:12;;;;;;;6.85;3.20;;;;;;;;;;5007876;28;20394;-63
2023/07/09 12:41:39;;;;;;;6.13;3.30;;;;;;;;;;5001703;28;20065;-61
2023/07/09 12:44:04;;;;;;;7.95;3.10;;;;;;;;;;5008835;28;20052;-61
2023/07/09 12:46:30;;;;;;;5.10;3.08;;;;;;;;;;5006799;28;20050;-63
2023/07/09 12:48:56;;;;;;;7.35;3.15;;;;;;;;;;5007343;28;20109;-63
2023/07/09 12:51:28;;;;;;;7.18;2.92;;;;;;;;;;5003825;28;20113;-63
2023/07/09 12:54:00;;;;;;;7.18;3.40;;;;;;;;;;5007078;28;20033;-62
2023/07/09 12:56:25;;;;;;;5.72;3.45;;;;;;;;;;5009755;28;20038;-64
2023/07/09 12:58:50;;;;;;;5.30;2.97;;;;;;;;;;5003345;28;20554;-62
2023/07/09 13:01:16;;;;;;;9.33;3.50;;;;;;;;;;5008408;28;20011;-64
2023/07/09 13:03:53;;;;;;;6.38;3.53;;;;;;;;;;5008550;28;20046;-64
2023/07/09 13:06:34;;;;;;;6.57;3.00;;;;;;;;;;5010318;28;20046;-61
2023/07/09 13:08:59;;;;;;;5.68;3.22;;;;;;;;;;5003982;28;20409;-63
2023/07/09 13:11:25;;;;;;;5.70;3.17;;;;;;;;;;4995394;28;20025;-64
2023/07/09 13:13:58;;;;;;;6.25;3.13;;;;;;;;;;5012723;28;20022;-62
2023/07/09 13:16:23;;;;;;;7.30;3.08;;;;;;;;;;5002355;28;20054;-64
2023/07/09 13:18:48;;;;;;;6.57;3.10;;;;;;;;;;5007596;28;20105;-62
2023/07/09 13:21:15;;;;;;;7.32;3.15;;;;;;;;;;5004338;28;20018;-62
2023/07/09 13:23:42;;;;;;;7.35;3.17;;;;;;;;;;5012268;28;20021;-62
2023/07/09 13:26:07;;;;;;;6.82;3.00;;;;;;;;;;5009911;28;20044;-61
2023/07/09 13:28:33;;;;;;;6.82;3.30;;;;;;;;;;5007158;28;20392;-62
2023/07/09 13:31:12;;;;;;;6.88;2.80;;;;;;;;;;5005854;28;20049;-62
2023/07/09 13:33:37;;;;;;;5.07;2.80;;;;;;;;;;4994470;28;20547;-61
2023/07/09 13:36:03;;;;;;;6.20;3.37;;;;;;;;;;5001521;28;20111;-63
2023/07/09 13:38:28;;;;;;;6.13;2.83;;;;;;;;;;5007583;28;20022;-63
2023/07/09 13:40:58;;;;;;;6.87;3.33;;;;;;;;;;5004916;28;20018;-64
2023/07/09 13:43:31;;;;;;;6.47;3.10;;;;;;;;;;5006565;28;20104;-63
2023/07/09 13:45:57;;;;;;;6.03;2.95;;;;;;;;;;5003314;28;20025;-63
2023/07/09 13:48:22;;;;;;;6.13;3.10;;;;;;;;;;5010196;28;20018;-63
2023/07/09 13:50:49;;;;;;;5.63;3.20;;;;;;;;;;5005468;28;20379;-63
2023/07/09 13:53:15;;;;;;;6.03;3.17;;;;;;;;;;5003423;28;20022;-64
2023/07/09 13:55:41;;;;;;;6.55;3.10;;;;;;;;;;5005361;28;20466;-63
2023/07/09 13:58:08;;;;;;;6.07;2.97;;;;;;;;;;5007489;28;20032;-61
2023/07/09 14:00:33;;;;;;;6.55;3.22;;;;;;;;;;5006426;28;20022;-63
2023/07/09 14:02:58;;;;;;;6.38;2.90;;;;;;;;;;5005662;28;20029;-62
2023/07/09 14:05:23;;;;;;;6.37;3.00;;;;;;;;;;5009631;28;20057;-63
2023/07/09 14:07:49;;;;;;;6.83;3.17;;;;;;;;;;5011719;28;20580;-62
2023/07/09 14:10:17;;;;;;;6.03;3.13;;;;;;;;;;5011168;28;20509;-63
2023/07/09 14:12:44;;;;;;;7.20;3.15;;;;;;;;;;5002903;28;20022;-64
2023/07/09 14:15:13;;;;;;;6.15;3.10;;;;;;;;;;5007109;28;20029;-64
2023/07/09 14:17:38;;;;;;;5.60;3.22;;;;;;;;;;5008025;28;20156;-64
2023/07/09 14:20:04;;;;;;;6.70;3.40;;;;;;;;;;5012198;28;20100;-64
2023/07/09 14:22:33;;;;;;;6.10;3.00;;;;;;;;;;5004240;28;20025;-64
2023/07/09 14:24:58;;;;;;;5.78;3.10;;;;;;;;;;5010425;28;20490;-63
2023/07/09 14:27:24;;;;;;;6.57;3.10;;;;;;;;;;5006158;28;20040;-63
2023/07/09 14:29:49;;;;;;;6.20;3.40;;;;;;;;;;5004804;28;20022;-63
2023/07/09 14:32:25;;;;;;;6.45;3.30;;;;;;;;;;5000802;28;20105;-62
2023/07/09 14:34:51;;;;;;;5.78;3.25;;;;;;;;;;5007061;28;20041;-62
2023/07/09 14:37:16;;;;;;;7.07;3.42;;;;;;;;;;4999837;28;20470;-63
2023/07/09 14:39:41;;;;;;;6.03;3.40;;;;;;;;;;5001868;28;20057;-63
2023/07/09 14:42:11;;;;;;;5.68;3.17;;;;;;;;;;5002812;28;20026;-62
2023/07/09 14:44:36;;;;;;;6.60;3.20;;;;;;;;;;4998707;28;20034;-63
2023/07/09 14:47:03;;;;;;;6.30;3.30;;;;;;;;;;5000092;28;20479;-63
2023/07/09 14:49:29;;;;;;;7.45;3.25;;;;;;;;;;5006004;28;20026;-63
2023/07/09 14:51:55;;;;;;;5.90;3.20;;;;;;;;;;5002339;28;20024;-64